sensor_id;sensor_type;location;lat;lon;timestamp;pressure;altitude;pressure_sealevel;temperature;humidity
69035;BME280;56091;55.756;37.412;2023-03-15T00:01:40;98330.28;;;3.84;52.79
69035;BME280;56091;55.756;37.412;2023-03-15T00:06:41;98348.81;;;3.90;52.42
69035;BME280;56091;55.756;37.412;2023-03-15T00:11:42;98355.66;;;3.86;53.04
69035;BME280;56091;55.756;37.412;2023-03-15T00:16:43;98337.94;;;3.80;53.30
69035;BME280;56091;55.756;37.412;2023-03-15T00:21:43;98347.81;;;3.80;53.37
69035;BME280;56091;55.756;37.412;2023-03-15T00:26:44;98357.53;;;3.86;53.89
69035;BME280;56091;55.756;37.412;2023-03-15T00:31:45;98346.28;;;3.84;53.83
69035;BME280;56091;55.756;37.412;2023-03-15T00:36:47;98340.47;;;3.87;53.80
69035;BME280;56091;55.756;37.412;2023-03-15T00:41:48;98343.72;;;3.89;54.17
69035;BME280;56091;55.756;37.412;2023-03-15T00:46:49;98333.75;;;3.84;54.19
69035;BME280;56091;55.756;37.412;2023-03-15T00:51:53;98336.03;;;3.92;54.17
69035;BME280;56091;55.756;37.412;2023-03-15T00:56:54;98348.13;;;3.95;54.46
69035;BME280;56091;55.756;37.412;2023-03-15T01:01:55;98340.59;;;3.92;54.67
69035;BME280;56091;55.756;37.412;2023-03-15T01:06:56;98330.47;;;3.94;54.92
69035;BME280;56091;55.756;37.412;2023-03-15T01:11:58;98319.00;;;3.94;55.15
69035;BME280;56091;55.756;37.412;2023-03-15T01:16:58;98338.25;;;3.96;54.75
69035;BME280;56091;55.756;37.412;2023-03-15T01:21:59;98341.28;;;3.99;54.86
69035;BME280;56091;55.756;37.412;2023-03-15T01:27:00;98341.84;;;4.01;55.31
69035;BME280;56091;55.756;37.412;2023-03-15T01:32:01;98343.22;;;4.04;55.20
69035;BME280;56091;55.756;37.412;2023-03-15T01:37:03;98321.53;;;4.00;54.99
69035;BME280;56091;55.756;37.412;2023-03-15T01:42:13;98336.47;;;4.13;54.80
69035;BME280;56091;55.756;37.412;2023-03-15T01:47:16;98340.63;;;4.21;55.01
69035;BME280;56091;55.756;37.412;2023-03-15T01:52:22;98280.84;;;3.93;54.63
69035;BME280;56091;55.756;37.412;2023-03-15T01:57:35;98349.66;;;4.32;54.87
69035;BME280;56091;55.756;37.412;2023-03-15T02:02:53;98330.06;;;4.26;54.88
69035;BME280;56091;55.756;37.412;2023-03-15T02:08:01;98346.88;;;4.26;55.12
69035;BME280;56091;55.756;37.412;2023-03-15T02:13:07;98333.13;;;4.18;55.45
69035;BME280;56091;55.756;37.412;2023-03-15T02:18:17;98342.72;;;4.19;55.59
69035;BME280;56091;55.756;37.412;2023-03-15T02:23:38;98360.28;;;4.15;55.88
69035;BME280;56091;55.756;37.412;2023-03-15T02:28:40;98313.56;;;3.77;56.56
69035;BME280;56091;55.756;37.412;2023-03-15T02:33:45;98364.91;;;4.07;56.42
69035;BME280;56091;55.756;37.412;2023-03-15T02:38:48;98359.84;;;3.94;56.92
69035;BME280;56091;55.756;37.412;2023-03-15T02:43:53;98356.00;;;3.90;57.39
69035;BME280;56091;55.756;37.412;2023-03-15T02:48:55;98362.88;;;3.86;57.43
69035;BME280;56091;55.756;37.412;2023-03-15T02:53:56;98350.69;;;3.78;57.70
69035;BME280;56091;55.756;37.412;2023-03-15T02:58:59;98349.06;;;3.77;57.83
69035;BME280;56091;55.756;37.412;2023-03-15T03:04:00;98351.38;;;3.74;58.11
69035;BME280;56091;55.756;37.412;2023-03-15T03:09:01;98355.09;;;3.72;58.17
69035;BME280;56091;55.756;37.412;2023-03-15T03:14:03;98357.19;;;3.70;58.44
69035;BME280;56091;55.756;37.412;2023-03-15T03:19:04;98352.31;;;3.67;58.04
69035;BME280;56091;55.756;37.412;2023-03-15T03:24:08;98362.97;;;3.67;58.40
69035;BME280;56091;55.756;37.412;2023-03-15T03:29:09;98373.88;;;3.66;58.37
69035;BME280;56091;55.756;37.412;2023-03-15T03:34:10;98365.53;;;3.62;58.65
69035;BME280;56091;55.756;37.412;2023-03-15T03:39:14;98319.72;;;3.30;58.28
69035;BME280;56091;55.756;37.412;2023-03-15T03:44:16;98362.75;;;3.57;58.26
69035;BME280;56091;55.756;37.412;2023-03-15T03:49:18;98383.16;;;3.63;58.41
69035;BME280;56091;55.756;37.412;2023-03-15T03:54:20;98381.53;;;3.62;58.56
69035;BME280;56091;55.756;37.412;2023-03-15T03:59:21;98379.34;;;3.59;58.04
69035;BME280;56091;55.756;37.412;2023-03-15T04:04:29;98375.63;;;3.60;58.27
69035;BME280;56091;55.756;37.412;2023-03-15T04:09:30;98387.00;;;3.67;57.88
69035;BME280;56091;55.756;37.412;2023-03-15T04:14:31;98390.81;;;3.71;57.78
69035;BME280;56091;55.756;37.412;2023-03-15T04:19:32;98386.19;;;3.79;57.77
69035;BME280;56091;55.756;37.412;2023-03-15T04:24:33;98399.28;;;3.80;57.60
69035;BME280;56091;55.756;37.412;2023-03-15T04:29:34;98383.03;;;3.94;57.59
69035;BME280;56091;55.756;37.412;2023-03-15T04:34:55;98388.25;;;4.00;57.23
69035;BME280;56091;55.756;37.412;2023-03-15T04:40:04;98387.94;;;3.97;56.81
69035;BME280;56091;55.756;37.412;2023-03-15T04:45:28;98398.13;;;4.00;56.62
69035;BME280;56091;55.756;37.412;2023-03-15T04:51:01;98348.50;;;3.63;56.88
69035;BME280;56091;55.756;37.412;2023-03-15T04:56:14;98423.66;;;3.96;56.69
69035;BME280;56091;55.756;37.412;2023-03-15T05:01:29;98427.47;;;4.00;56.35
69035;BME280;56091;55.756;37.412;2023-03-15T05:06:49;98430.72;;;4.14;55.64
69035;BME280;56091;55.756;37.412;2023-03-15T05:12:13;98443.38;;;4.18;55.49
69035;BME280;56091;55.756;37.412;2023-03-15T05:17:40;98439.53;;;4.26;55.26
69035;BME280;56091;55.756;37.412;2023-03-15T05:23:08;98444.28;;;4.24;55.38
69035;BME280;56091;55.756;37.412;2023-03-15T05:28:32;98444.75;;;4.33;55.24
69035;BME280;56091;55.756;37.412;2023-03-15T05:34:06;98452.94;;;4.55;54.98
69035;BME280;56091;55.756;37.412;2023-03-15T05:39:25;98442.16;;;4.49;54.57
69035;BME280;56091;55.756;37.412;2023-03-15T05:44:32;98463.63;;;4.55;54.59
69035;BME280;56091;55.756;37.412;2023-03-15T05:49:51;98460.28;;;4.59;54.00
69035;BME280;56091;55.756;37.412;2023-03-15T05:55:13;98468.63;;;4.51;53.98
69035;BME280;56091;55.756;37.412;2023-03-15T06:00:34;98467.09;;;4.67;53.72
69035;BME280;56091;55.756;37.412;2023-03-15T06:05:43;98469.50;;;4.80;52.97
69035;BME280;56091;55.756;37.412;2023-03-15T06:10:48;98462.97;;;4.88;52.77
69035;BME280;56091;55.756;37.412;2023-03-15T06:15:49;98468.28;;;5.00;52.48
69035;BME280;56091;55.756;37.412;2023-03-15T06:20:52;98480.34;;;5.31;52.05
69035;BME280;56091;55.756;37.412;2023-03-15T06:25:53;98472.84;;;5.45;51.10
69035;BME280;56091;55.756;37.412;2023-03-15T06:30:55;98488.75;;;5.68;50.91
69035;BME280;56091;55.756;37.412;2023-03-15T06:36:02;98485.59;;;5.72;50.58
69035;BME280;56091;55.756;37.412;2023-03-15T06:41:03;98498.56;;;5.80;50.96
69035;BME280;56091;55.756;37.412;2023-03-15T06:46:07;98505.94;;;5.73;50.64
69035;BME280;56091;55.756;37.412;2023-03-15T06:51:08;98509.03;;;5.81;50.68
69035;BME280;56091;55.756;37.412;2023-03-15T06:56:10;98504.69;;;6.26;49.74
69035;BME280;56091;55.756;37.412;2023-03-15T07:01:12;98521.25;;;6.23;49.99
69035;BME280;56091;55.756;37.412;2023-03-15T07:06:14;98513.84;;;6.30;49.90
69035;BME280;56091;55.756;37.412;2023-03-15T07:11:14;98518.72;;;6.33;49.89
69035;BME280;56091;55.756;37.412;2023-03-15T07:16:15;98525.03;;;6.44;49.68
69035;BME280;56091;55.756;37.412;2023-03-15T07:21:16;98529.81;;;6.81;48.91
69035;BME280;56091;55.756;37.412;2023-03-15T07:26:17;98518.84;;;7.27;47.85
69035;BME280;56091;55.756;37.412;2023-03-15T07:31:20;98516.03;;;7.16;47.99
69035;BME280;56091;55.756;37.412;2023-03-15T07:36:24;98523.91;;;7.23;47.83
69035;BME280;56091;55.756;37.412;2023-03-15T07:41:25;98527.47;;;7.29;48.05
69035;BME280;56091;55.756;37.412;2023-03-15T07:46:40;98525.97;;;7.16;48.72
69035;BME280;56091;55.756;37.412;2023-03-15T07:51:41;98531.28;;;7.38;48.25
69035;BME280;56091;55.756;37.412;2023-03-15T07:56:42;98532.75;;;7.46;47.75
69035;BME280;56091;55.756;37.412;2023-03-15T08:01:42;98535.59;;;7.66;47.46
69035;BME280;56091;55.756;37.412;2023-03-15T08:06:43;98519.47;;;7.61;47.46
69035;BME280;56091;55.756;37.412;2023-03-15T08:11:44;98553.44;;;7.77;47.37
69035;BME280;56091;55.756;37.412;2023-03-15T08:16:45;98545.16;;;7.57;47.70
69035;BME280;56091;55.756;37.412;2023-03-15T08:21:45;98561.19;;;7.47;48.60
69035;BME280;56091;55.756;37.412;2023-03-15T08:26:47;98560.69;;;7.28;48.75
69035;BME280;56091;55.756;37.412;2023-03-15T08:31:48;98563.75;;;7.14;48.76
69035;BME280;56091;55.756;37.412;2023-03-15T08:36:49;98547.59;;;7.31;48.93
69035;BME280;56091;55.756;37.412;2023-03-15T08:41:50;98544.59;;;7.50;48.58
69035;BME280;56091;55.756;37.412;2023-03-15T08:46:51;98557.44;;;7.75;48.32
69035;BME280;56091;55.756;37.412;2023-03-15T08:51:52;98546.38;;;7.98;47.81
69035;BME280;56091;55.756;37.412;2023-03-15T08:56:52;98558.94;;;8.20;47.66
69035;BME280;56091;55.756;37.412;2023-03-15T09:01:53;98556.53;;;8.24;47.60
69035;BME280;56091;55.756;37.412;2023-03-15T09:06:54;98545.38;;;8.05;48.25
69035;BME280;56091;55.756;37.412;2023-03-15T09:11:54;98540.91;;;7.88;48.85
69035;BME280;56091;55.756;37.412;2023-03-15T09:16:56;98538.78;;;7.90;49.02
69035;BME280;56091;55.756;37.412;2023-03-15T09:21:56;98547.31;;;7.82;49.91
69035;BME280;56091;55.756;37.412;2023-03-15T09:26:57;98542.75;;;7.82;50.05
69035;BME280;56091;55.756;37.412;2023-03-15T09:31:58;98554.91;;;7.90;49.70
69035;BME280;56091;55.756;37.412;2023-03-15T09:37:01;98549.84;;;7.94;49.83
69035;BME280;56091;55.756;37.412;2023-03-15T09:42:10;98557.78;;;8.11;49.61
69035;BME280;56091;55.756;37.412;2023-03-15T09:52:36;98552.41;;;8.43;48.97
69035;BME280;56091;55.756;37.412;2023-03-15T09:57:52;98547.09;;;8.53;48.67
69035;BME280;56091;55.756;37.412;2023-03-15T10:02:59;98559.31;;;8.71;48.40
69035;BME280;56091;55.756;37.412;2023-03-15T10:08:08;98547.19;;;8.69;48.44
69035;BME280;56091;55.756;37.412;2023-03-15T10:23:49;98552.19;;;8.97;48.39
69035;BME280;56091;55.756;37.412;2023-03-15T10:28:52;98559.50;;;9.07;48.26
69035;BME280;56091;55.756;37.412;2023-03-15T10:33:53;98548.81;;;9.33;47.62
69035;BME280;56091;55.756;37.412;2023-03-15T10:38:56;98501.72;;;9.30;46.97
69035;BME280;56091;55.756;37.412;2023-03-15T10:44:03;98561.59;;;9.78;46.58
69035;BME280;56091;55.756;37.412;2023-03-15T10:49:11;98563.19;;;9.69;46.83
69035;BME280;56091;55.756;37.412;2023-03-15T10:54:16;98555.41;;;9.83;46.68
69035;BME280;56091;55.756;37.412;2023-03-15T10:59:23;98555.16;;;10.00;46.22
69035;BME280;56091;55.756;37.412;2023-03-15T11:04:25;98553.81;;;10.18;45.67
69035;BME280;56091;55.756;37.412;2023-03-15T11:09:37;98548.97;;;10.25;45.70
69035;BME280;56091;55.756;37.412;2023-03-15T11:14:41;98552.50;;;10.36;45.51
69035;BME280;56091;55.756;37.412;2023-03-15T11:20:09;98554.38;;;10.41;45.24
69035;BME280;56091;55.756;37.412;2023-03-15T11:25:14;98554.63;;;10.60;44.85
69035;BME280;56091;55.756;37.412;2023-03-15T11:30:15;98543.25;;;10.78;44.39
69035;BME280;56091;55.756;37.412;2023-03-15T11:35:34;98555.09;;;10.87;44.11
69035;BME280;56091;55.756;37.412;2023-03-15T11:40:41;98550.25;;;10.89;44.28
69035;BME280;56091;55.756;37.412;2023-03-15T11:46:02;98541.34;;;10.89;44.40
69035;BME280;56091;55.756;37.412;2023-03-15T11:51:12;98536.16;;;11.08;43.88
69035;BME280;56091;55.756;37.412;2023-03-15T11:56:28;98529.59;;;11.19;43.48
69035;BME280;56091;55.756;37.412;2023-03-15T12:01:58;98537.75;;;11.04;43.83
69035;BME280;56091;55.756;37.412;2023-03-15T12:07:27;98535.16;;;10.78;44.73
69035;BME280;56091;55.756;37.412;2023-03-15T12:17:48;98557.31;;;10.24;46.10
69035;BME280;56091;55.756;37.412;2023-03-15T12:22:51;98548.94;;;10.56;45.90
69035;BME280;56091;55.756;37.412;2023-03-15T12:27:56;98548.13;;;10.71;45.13
69035;BME280;56091;55.756;37.412;2023-03-15T12:32:58;98561.09;;;10.23;46.20
69035;BME280;56091;55.756;37.412;2023-03-15T12:38:01;98561.06;;;9.92;46.96
69035;BME280;56091;55.756;37.412;2023-03-15T12:43:02;98565.94;;;9.85;47.22
69035;BME280;56091;55.756;37.412;2023-03-15T12:58:22;98550.84;;;9.99;47.03
69035;BME280;56091;55.756;37.412;2023-03-15T13:03:25;98558.88;;;9.78;47.49
69035;BME280;56091;55.756;37.412;2023-03-15T13:08:40;98566.13;;;9.57;48.06
69035;BME280;56091;55.756;37.412;2023-03-15T13:13:47;98566.09;;;9.47;48.24
69035;BME280;56091;55.756;37.412;2023-03-15T13:19:28;98558.00;;;9.42;48.32
69035;BME280;56091;55.756;37.412;2023-03-15T13:30:32;98543.78;;;9.57;48.21
69035;BME280;56091;55.756;37.412;2023-03-15T13:35:46;98542.88;;;9.31;48.92
69035;BME280;56091;55.756;37.412;2023-03-15T13:40:47;98545.47;;;9.00;49.82
69035;BME280;56091;55.756;37.412;2023-03-15T13:45:48;98537.88;;;8.87;49.97
69035;BME280;56091;55.756;37.412;2023-03-15T13:50:49;98533.56;;;8.81;50.29
69035;BME280;56091;55.756;37.412;2023-03-15T13:55:53;98539.41;;;8.72;50.57
69035;BME280;56091;55.756;37.412;2023-03-15T14:00:58;98532.38;;;8.66;50.97
69035;BME280;56091;55.756;37.412;2023-03-15T14:05:59;98541.16;;;8.46;51.75
69035;BME280;56091;55.756;37.412;2023-03-15T14:11:31;98541.16;;;8.19;52.56
69035;BME280;56091;55.756;37.412;2023-03-15T14:16:40;98549.84;;;7.94;52.95
69035;BME280;56091;55.756;37.412;2023-03-15T14:21:50;98539.47;;;7.75;53.60
69035;BME280;56091;55.756;37.412;2023-03-15T14:26:54;98546.59;;;7.92;52.93
69035;BME280;56091;55.756;37.412;2023-03-15T14:32:01;98554.97;;;8.00;52.79
69035;BME280;56091;55.756;37.412;2023-03-15T14:37:07;98571.09;;;8.00;52.57
69035;BME280;56091;55.756;37.412;2023-03-15T14:42:26;98567.72;;;8.10;52.51
69035;BME280;56091;55.756;37.412;2023-03-15T14:47:27;98557.88;;;9.06;50.57
69035;BME280;56091;55.756;37.412;2023-03-15T14:52:28;98569.31;;;11.68;43.45
69035;BME280;56091;55.756;37.412;2023-03-15T14:57:28;98566.03;;;12.21;41.14
69035;BME280;56091;55.756;37.412;2023-03-15T15:02:31;98566.22;;;10.50;44.67
69035;BME280;56091;55.756;37.412;2023-03-15T15:07:32;98559.75;;;9.06;48.45
69035;BME280;56091;55.756;37.412;2023-03-15T15:12:33;98569.38;;;8.16;50.82
69035;BME280;56091;55.756;37.412;2023-03-15T15:17:39;98563.84;;;7.69;52.62
69035;BME280;56091;55.756;37.412;2023-03-15T15:22:41;98565.63;;;7.36;53.69
69035;BME280;56091;55.756;37.412;2023-03-15T15:27:43;98572.25;;;7.06;54.15
69035;BME280;56091;55.756;37.412;2023-03-15T15:32:44;98581.63;;;6.87;55.23
69035;BME280;56091;55.756;37.412;2023-03-15T15:37:47;98560.31;;;6.58;55.79
69035;BME280;56091;55.756;37.412;2023-03-15T15:42:48;98573.41;;;6.54;56.26
69035;BME280;56091;55.756;37.412;2023-03-15T15:47:52;98577.41;;;6.35;56.78
69035;BME280;56091;55.756;37.412;2023-03-15T15:53:01;98580.41;;;6.21;56.87
69035;BME280;56091;55.756;37.412;2023-03-15T15:58:03;98571.00;;;6.02;56.94
69035;BME280;56091;55.756;37.412;2023-03-15T16:03:13;98547.56;;;5.63;56.99
69035;BME280;56091;55.756;37.412;2023-03-15T16:08:21;98581.50;;;5.63;57.28
69035;BME280;56091;55.756;37.412;2023-03-15T16:13:23;98599.66;;;5.61;57.07
69035;BME280;56091;55.756;37.412;2023-03-15T16:18:24;98595.13;;;5.61;57.12
69035;BME280;56091;55.756;37.412;2023-03-15T16:23:25;98593.91;;;5.52;57.24
69035;BME280;56091;55.756;37.412;2023-03-15T16:28:26;98606.34;;;5.46;56.65
69035;BME280;56091;55.756;37.412;2023-03-15T16:33:28;98592.16;;;5.46;56.73
69035;BME280;56091;55.756;37.412;2023-03-15T16:38:30;98617.34;;;5.62;56.14
69035;BME280;56091;55.756;37.412;2023-03-15T16:43:31;98628.84;;;5.62;56.70
69035;BME280;56091;55.756;37.412;2023-03-15T16:48:35;98645.72;;;5.63;56.69
69035;BME280;56091;55.756;37.412;2023-03-15T16:53:36;98622.38;;;5.58;56.80
69035;BME280;56091;55.756;37.412;2023-03-15T16:58:37;98637.13;;;5.61;56.84
69035;BME280;56091;55.756;37.412;2023-03-15T17:03:39;98608.34;;;5.39;56.63
69035;BME280;56091;55.756;37.412;2023-03-15T17:08:43;98634.03;;;5.52;56.86
69035;BME280;56091;55.756;37.412;2023-03-15T17:13:44;98632.03;;;5.47;56.25
69035;BME280;56091;55.756;37.412;2023-03-15T17:18:45;98645.78;;;5.39;56.38
69035;BME280;56091;55.756;37.412;2023-03-15T17:23:48;98639.97;;;5.42;56.53
69035;BME280;56091;55.756;37.412;2023-03-15T17:28:52;98653.47;;;5.36;56.64
69035;BME280;56091;55.756;37.412;2023-03-15T17:33:53;98638.16;;;5.19;56.53
69035;BME280;56091;55.756;37.412;2023-03-15T17:38:55;98630.59;;;5.04;56.98
69035;BME280;56091;55.756;37.412;2023-03-15T17:43:56;98649.56;;;5.15;56.65
69035;BME280;56091;55.756;37.412;2023-03-15T17:48:58;98644.56;;;5.06;56.75
69035;BME280;56091;55.756;37.412;2023-03-15T17:54:00;98644.81;;;5.05;56.61
69035;BME280;56091;55.756;37.412;2023-03-15T17:59:01;98630.75;;;4.98;56.70
69035;BME280;56091;55.756;37.412;2023-03-15T18:04:05;98635.38;;;5.14;56.11
69035;BME280;56091;55.756;37.412;2023-03-15T18:09:10;98635.28;;;5.09;56.00
69035;BME280;56091;55.756;37.412;2023-03-15T18:14:13;98622.72;;;4.98;55.61
69035;BME280;56091;55.756;37.412;2023-03-15T18:19:20;98633.06;;;5.06;55.36
69035;BME280;56091;55.756;37.412;2023-03-15T18:24:21;98649.66;;;5.08;55.29
69035;BME280;56091;55.756;37.412;2023-03-15T18:29:22;98640.38;;;5.11;55.56
69035;BME280;56091;55.756;37.412;2023-03-15T18:34:22;98638.53;;;5.11;55.03
69035;BME280;56091;55.756;37.412;2023-03-15T18:39:26;98633.53;;;5.15;55.07
69035;BME280;56091;55.756;37.412;2023-03-15T18:44:27;98629.34;;;5.07;55.32
69035;BME280;56091;55.756;37.412;2023-03-15T18:49:28;98620.97;;;5.03;55.57
69035;BME280;56091;55.756;37.412;2023-03-15T18:54:31;98636.44;;;5.01;55.41
69035;BME280;56091;55.756;37.412;2023-03-15T18:59:32;98627.34;;;5.02;55.58
69035;BME280;56091;55.756;37.412;2023-03-15T19:04:33;98574.56;;;4.57;55.96
69035;BME280;56091;55.756;37.412;2023-03-15T19:09:34;98611.72;;;4.82;56.12
69035;BME280;56091;55.756;37.412;2023-03-15T19:14:35;98612.25;;;5.08;56.17
69035;BME280;56091;55.756;37.412;2023-03-15T19:19:36;98617.03;;;4.94;55.73
69035;BME280;56091;55.756;37.412;2023-03-15T19:24:37;98616.81;;;4.96;56.01
69035;BME280;56091;55.756;37.412;2023-03-15T19:29:40;98601.25;;;4.81;56.12
69035;BME280;56091;55.756;37.412;2023-03-15T19:34:41;98611.56;;;4.89;56.56
69035;BME280;56091;55.756;37.412;2023-03-15T19:39:42;98624.25;;;4.94;56.49
69035;BME280;56091;55.756;37.412;2023-03-15T19:44:43;98620.44;;;4.89;56.78
69035;BME280;56091;55.756;37.412;2023-03-15T19:49:46;98613.44;;;4.88;56.51
69035;BME280;56091;55.756;37.412;2023-03-15T19:54:47;98603.34;;;4.79;57.03
69035;BME280;56091;55.756;37.412;2023-03-15T19:59:50;98620.28;;;4.96;57.00
69035;BME280;56091;55.756;37.412;2023-03-15T20:04:51;98607.06;;;4.89;57.24
69035;BME280;56091;55.756;37.412;2023-03-15T20:09:52;98630.50;;;4.87;57.48
69035;BME280;56091;55.756;37.412;2023-03-15T20:14:53;98614.38;;;4.82;57.58
69035;BME280;56091;55.756;37.412;2023-03-15T20:19:54;98606.38;;;4.82;57.50
69035;BME280;56091;55.756;37.412;2023-03-15T20:24:54;98616.94;;;4.77;57.88
69035;BME280;56091;55.756;37.412;2023-03-15T20:29:55;98608.78;;;4.72;58.16
69035;BME280;56091;55.756;37.412;2023-03-15T20:34:57;98603.69;;;4.82;57.83
69035;BME280;56091;55.756;37.412;2023-03-15T20:39:58;98594.72;;;4.88;57.81
69035;BME280;56091;55.756;37.412;2023-03-15T20:44:59;98612.03;;;4.98;57.63
69035;BME280;56091;55.756;37.412;2023-03-15T20:50:00;98610.16;;;4.98;57.45
69035;BME280;56091;55.756;37.412;2023-03-15T20:55:01;98620.63;;;5.00;57.59
69035;BME280;56091;55.756;37.412;2023-03-15T21:00:04;98618.09;;;5.05;57.65
69035;BME280;56091;55.756;37.412;2023-03-15T21:05:15;98606.22;;;5.01;57.63
69035;BME280;56091;55.756;37.412;2023-03-15T21:10:16;98622.38;;;4.94;57.95
69035;BME280;56091;55.756;37.412;2023-03-15T21:15:16;98629.69;;;4.87;58.27
69035;BME280;56091;55.756;37.412;2023-03-15T21:20:18;98618.09;;;4.81;58.76
69035;BME280;56091;55.756;37.412;2023-03-15T21:25:19;98626.81;;;4.77;59.77
69035;BME280;56091;55.756;37.412;2023-03-15T21:30:20;98630.88;;;4.79;60.45
69035;BME280;56091;55.756;37.412;2023-03-15T21:35:20;98627.97;;;4.69;61.62
69035;BME280;56091;55.756;37.412;2023-03-15T21:40:21;98621.22;;;4.66;62.04
69035;BME280;56091;55.756;37.412;2023-03-15T21:45:22;98623.53;;;4.51;62.37
69035;BME280;56091;55.756;37.412;2023-03-15T21:50:23;98621.31;;;4.36;62.84
69035;BME280;56091;55.756;37.412;2023-03-15T21:55:24;98621.28;;;4.13;63.99
69035;BME280;56091;55.756;37.412;2023-03-15T22:00:24;98629.06;;;4.14;64.62
69035;BME280;56091;55.756;37.412;2023-03-15T22:05:25;98623.16;;;4.12;64.81
69035;BME280;56091;55.756;37.412;2023-03-15T22:10:26;98624.09;;;4.18;64.55
69035;BME280;56091;55.756;37.412;2023-03-15T22:15:27;98624.09;;;4.18;64.97
69035;BME280;56091;55.756;37.412;2023-03-15T22:20:28;98632.69;;;4.20;65.32
69035;BME280;56091;55.756;37.412;2023-03-15T22:25:32;98629.53;;;4.23;65.37
69035;BME280;56091;55.756;37.412;2023-03-15T22:30:33;98610.59;;;4.13;65.47
69035;BME280;56091;55.756;37.412;2023-03-15T22:35:34;98619.78;;;4.17;65.64
69035;BME280;56091;55.756;37.412;2023-03-15T22:40:39;98619.78;;;4.17;65.87
69035;BME280;56091;55.756;37.412;2023-03-15T22:45:40;98629.66;;;4.16;65.89
69035;BME280;56091;55.756;37.412;2023-03-15T22:50:42;98631.97;;;4.24;66.21
69035;BME280;56091;55.756;37.412;2023-03-15T22:55:43;98631.75;;;4.26;65.80
69035;BME280;56091;55.756;37.412;2023-03-15T23:00:45;98631.63;;;4.21;66.12
69035;BME280;56091;55.756;37.412;2023-03-15T23:05:45;98628.59;;;4.17;66.08
69035;BME280;56091;55.756;37.412;2023-03-15T23:10:49;98629.72;;;4.09;66.48
69035;BME280;56091;55.756;37.412;2023-03-15T23:15:50;98592.81;;;3.95;66.85
69035;BME280;56091;55.756;37.412;2023-03-15T23:20:50;98593.88;;;4.05;67.02
69035;BME280;56091;55.756;37.412;2023-03-15T23:25:51;98583.03;;;3.88;70.11
69035;BME280;56091;55.756;37.412;2023-03-15T23:30:53;98605.66;;;3.86;71.30
69035;BME280;56091;55.756;37.412;2023-03-15T23:35:55;98598.59;;;3.91;71.13
69035;BME280;56091;55.756;37.412;2023-03-15T23:40:59;98597.06;;;3.84;70.39
69035;BME280;56091;55.756;37.412;2023-03-15T23:46:01;98591.97;;;3.82;70.26
69035;BME280;56091;55.756;37.412;2023-03-15T23:51:03;98584.75;;;3.83;69.75
69035;BME280;56091;55.756;37.412;2023-03-15T23:56:04;98585.22;;;3.80;69.63
